createdAt,value
2023-05-24T00:03:16.091Z,5.88
2023-05-24T00:08:20.169Z,5.85
2023-05-24T00:13:24.367Z,5.79
2023-05-24T00:18:28.489Z,5.78
2023-05-24T00:23:32.731Z,5.69
2023-05-24T00:28:36.836Z,5.61
2023-05-24T00:33:41.048Z,5.55
2023-05-24T00:38:45.199Z,5.47
2023-05-24T00:43:49.374Z,5.40
2023-05-24T00:48:53.486Z,5.30
2023-05-24T00:53:57.630Z,5.25
2023-05-24T00:59:01.848Z,5.21
2023-05-24T01:04:05.992Z,5.18
2023-05-24T01:09:10.169Z,5.11
2023-05-24T01:14:14.349Z,5.08
2023-05-24T01:19:18.460Z,5.05
2023-05-24T01:24:22.694Z,5.00
2023-05-24T01:29:26.818Z,4.97
2023-05-24T01:34:30.985Z,4.87
2023-05-24T01:39:35.182Z,4.85
2023-05-24T01:44:39.320Z,4.83
2023-05-24T01:49:43.450Z,4.88
2023-05-24T01:54:45.805Z,4.80
2023-05-24T01:59:49.910Z,4.74
2023-05-24T02:04:54.075Z,4.70
2023-05-24T02:09:58.176Z,4.65
2023-05-24T02:15:02.389Z,4.59
2023-05-24T02:20:06.549Z,4.54
2023-05-24T02:25:10.722Z,4.49
2023-05-24T02:30:14.877Z,4.43
2023-05-24T02:35:19.071Z,4.43
2023-05-24T02:40:23.201Z,4.37
2023-05-24T02:45:27.377Z,4.26
2023-05-24T02:50:31.535Z,4.22
2023-05-24T02:55:35.668Z,4.14
2023-05-24T03:00:40.039Z,4.09
2023-05-24T03:05:44.030Z,4.04
2023-05-24T03:10:48.190Z,4.06
2023-05-24T03:15:52.359Z,3.99
2023-05-24T03:20:56.526Z,3.95
2023-05-24T03:26:00.716Z,3.91
2023-05-24T03:31:04.821Z,3.91
2023-05-24T03:36:08.988Z,3.87
2023-05-24T03:41:13.148Z,3.84
2023-05-24T03:46:17.427Z,3.81
2023-05-24T03:51:21.465Z,3.83
2023-05-24T03:56:25.654Z,3.90
2023-05-24T04:01:34.639Z,3.96
2023-05-24T04:06:34.027Z,3.97
2023-05-24T04:11:38.174Z,4.07
2023-05-24T04:16:42.352Z,4.14
2023-05-24T04:21:46.490Z,4.26
2023-05-24T04:26:50.647Z,4.36
2023-05-24T04:31:54.770Z,4.53
2023-05-24T04:36:58.953Z,4.77
2023-05-24T04:42:03.130Z,4.98
2023-05-24T04:47:07.510Z,5.06
2023-05-24T04:52:11.435Z,5.20
2023-05-24T04:57:15.625Z,5.47
2023-05-24T05:02:19.822Z,5.58
2023-05-24T05:07:23.964Z,5.69
2023-05-24T05:12:28.112Z,5.82
2023-05-24T05:17:32.307Z,5.93
2023-05-24T05:27:40.604Z,6.22
2023-05-24T05:32:44.842Z,6.38
2023-05-24T05:37:48.924Z,6.52
2023-05-24T05:42:53.087Z,6.81
2023-05-24T05:47:57.303Z,7.12
2023-05-24T05:53:01.402Z,7.44
2023-05-24T05:58:05.604Z,7.69
2023-05-24T06:03:09.839Z,7.96
2023-05-24T06:08:13.948Z,8.31
2023-05-24T06:13:18.088Z,8.58
2023-05-24T06:18:22.219Z,8.78
2023-05-24T06:23:26.391Z,9.02
2023-05-24T06:28:30.572Z,9.22
2023-05-24T06:33:36.421Z,9.53
2023-05-24T06:38:39.017Z,9.74
2023-05-24T06:43:43.023Z,9.99
2023-05-24T06:48:47.328Z,10.23
2023-05-24T06:53:51.332Z,10.39
2023-05-24T06:58:55.531Z,10.48
2023-05-24T07:03:59.685Z,10.63
2023-05-24T07:09:03.813Z,10.81
2023-05-24T07:14:07.980Z,10.89
2023-05-24T07:19:12.137Z,10.91
2023-05-24T07:24:16.072Z,11.03
2023-05-24T07:29:18.576Z,11.31
2023-05-24T07:34:22.759Z,11.14
2023-05-24T07:39:26.933Z,11.32
2023-05-24T07:44:31.077Z,11.61
2023-05-24T07:49:35.213Z,11.79
2023-05-24T07:54:37.500Z,11.89
2023-05-24T07:59:41.632Z,11.71
2023-05-24T08:04:45.871Z,11.44
2023-05-24T08:09:49.985Z,11.28
2023-05-24T08:14:54.155Z,11.36
2023-05-24T08:19:58.313Z,11.41
2023-05-24T08:25:02.524Z,11.52
2023-05-24T08:30:06.608Z,11.68
2023-05-24T08:35:19.362Z,11.78
2023-05-24T08:40:14.948Z,11.98
2023-05-24T08:45:19.128Z,11.93
2023-05-24T08:50:23.302Z,11.88
2023-05-24T08:55:27.433Z,12.20
2023-05-24T09:00:31.588Z,12.24
2023-05-24T09:05:35.777Z,12.16
2023-05-24T09:10:53.152Z,12.23
2023-05-24T09:15:44.390Z,12.22
2023-05-24T09:20:48.345Z,12.27
2023-05-24T09:25:52.405Z,12.59
2023-05-24T09:30:56.563Z,13.04
2023-05-24T09:36:00.708Z,13.60
2023-05-24T09:41:04.884Z,13.70
2023-05-24T09:46:09.068Z,13.43
2023-05-24T09:51:13.219Z,13.33
2023-05-24T09:56:17.316Z,12.91
2023-05-24T10:01:21.513Z,12.68
2023-05-24T10:06:25.724Z,12.68
2023-05-24T10:11:29.831Z,12.86
2023-05-24T10:16:34.023Z,13.22
2023-05-24T10:21:38.170Z,13.38
2023-05-24T10:26:42.315Z,13.54
2023-05-24T10:31:46.545Z,13.74
2023-05-24T10:36:50.607Z,13.92
2023-05-24T10:41:54.789Z,13.75
2023-05-24T10:46:58.953Z,13.56
2023-05-24T10:52:03.107Z,13.37
2023-05-24T10:57:07.252Z,13.37
2023-05-24T11:02:11.526Z,13.19
2023-05-24T11:07:15.627Z,13.37
2023-05-24T11:12:19.749Z,13.64
2023-05-24T11:17:24.046Z,13.60
2023-05-24T11:22:28.059Z,13.64
2023-05-24T11:27:32.246Z,13.71
2023-05-24T11:32:36.420Z,13.70
2023-05-24T11:37:46.440Z,13.46
2023-05-24T11:42:44.699Z,13.31
2023-05-24T11:47:48.972Z,13.18
2023-05-24T11:52:53.053Z,13.03
2023-05-24T11:57:57.181Z,12.89
2023-05-24T12:03:01.528Z,12.84
2023-05-24T12:08:05.543Z,12.78
2023-05-24T12:13:09.677Z,12.69
2023-05-24T12:18:13.864Z,12.75
2023-05-24T12:23:17.941Z,12.90
2023-05-24T12:28:22.186Z,12.96
2023-05-24T12:33:26.334Z,13.27
2023-05-24T12:38:30.498Z,13.70
2023-05-24T12:43:34.631Z,13.85
2023-05-24T12:48:38.853Z,13.87
2023-05-24T12:53:42.956Z,13.92
2023-05-24T12:58:47.121Z,13.93
2023-05-24T13:03:51.290Z,14.07
2023-05-24T13:08:55.423Z,13.87
2023-05-24T13:13:59.653Z,13.73
2023-05-24T13:19:03.748Z,13.82
2023-05-24T13:24:05.996Z,14.22
2023-05-24T13:29:32.308Z,14.45
2023-05-24T13:34:14.368Z,14.24
2023-05-24T13:39:18.464Z,14.03
2023-05-24T13:44:22.663Z,14.04
2023-05-24T13:49:26.842Z,13.92
2023-05-24T13:54:30.965Z,14.17
2023-05-24T13:59:35.121Z,14.26
2023-05-24T14:04:39.281Z,14.50
2023-05-24T14:09:43.490Z,15.16
2023-05-24T14:19:51.808Z,15.33
2023-05-24T14:24:55.907Z,15.24
2023-05-24T14:30:00.138Z,15.48
2023-05-24T14:35:04.231Z,16.20
2023-05-24T14:40:08.457Z,16.76
2023-05-24T14:45:12.614Z,16.93
2023-05-24T14:50:16.809Z,16.32
2023-05-24T14:55:20.898Z,16.37
2023-05-24T15:00:26.955Z,16.32
2023-05-24T15:05:29.306Z,15.71
2023-05-24T15:10:33.619Z,15.03
2023-05-24T15:15:37.542Z,14.77
2023-05-24T15:20:41.933Z,14.72
2023-05-24T15:25:45.868Z,14.61
2023-05-24T15:30:50.082Z,15.50
2023-05-24T15:35:54.166Z,17.09
2023-05-24T15:40:58.312Z,18.87
2023-05-24T15:46:02.507Z,18.65
2023-05-24T15:51:58.074Z,17.99
2023-05-24T15:56:10.801Z,16.88
2023-05-24T16:01:14.961Z,16.32
2023-05-24T16:06:19.169Z,16.25
2023-05-24T16:11:23.304Z,15.87
2023-05-24T16:16:27.524Z,15.78
2023-05-24T16:21:31.599Z,15.70
2023-05-24T16:26:35.784Z,15.72
2023-05-24T16:31:39.988Z,15.44
2023-05-24T16:36:44.098Z,15.44
2023-05-24T16:41:48.265Z,15.25
2023-05-24T16:46:52.484Z,15.04
2023-05-24T16:51:56.599Z,14.87
2023-05-24T16:57:00.725Z,14.77
2023-05-24T17:02:04.879Z,14.78
2023-05-24T17:07:09.050Z,15.01
2023-05-24T17:12:13.225Z,15.14
2023-05-24T17:17:17.364Z,15.19
2023-05-24T17:22:21.509Z,15.16
2023-05-24T17:27:25.771Z,15.09
2023-05-24T17:32:29.895Z,15.00
2023-05-24T17:37:34.016Z,14.97
2023-05-24T17:42:38.172Z,14.90
2023-05-24T17:47:42.398Z,14.82
2023-05-24T17:52:46.516Z,14.65
2023-05-24T17:57:50.643Z,14.53
2023-05-24T18:02:54.855Z,14.21
2023-05-24T18:07:58.990Z,14.14
2023-05-24T18:13:03.165Z,14.04
2023-05-24T18:18:07.302Z,13.90
2023-05-24T18:23:11.417Z,13.74
2023-05-24T18:28:15.593Z,13.53
2023-05-24T18:33:19.850Z,13.60
2023-05-24T18:38:23.902Z,13.50
2023-05-24T18:43:28.112Z,13.39
2023-05-24T18:48:32.227Z,13.18
2023-05-24T18:53:34.530Z,13.12
2023-05-24T18:58:38.669Z,12.94
2023-05-24T19:03:42.824Z,12.76
2023-05-24T19:08:46.972Z,12.50
2023-05-24T19:13:51.208Z,12.27
2023-05-24T19:18:55.331Z,12.20
2023-05-24T19:23:59.510Z,11.98
2023-05-24T19:29:03.664Z,11.72
2023-05-24T19:34:07.845Z,11.48
2023-05-24T19:44:16.121Z,11.08
2023-05-24T19:49:20.281Z,10.92
2023-05-24T19:54:24.463Z,10.77
2023-05-24T19:59:28.643Z,10.56
2023-05-24T20:04:32.817Z,10.38
2023-05-24T20:09:36.921Z,10.20
2023-05-24T20:14:41.110Z,10.03
2023-05-24T20:19:45.271Z,9.92
2023-05-24T20:24:49.421Z,9.88
2023-05-24T20:29:53.579Z,9.84
2023-05-24T20:34:57.736Z,9.70
2023-05-24T20:40:01.898Z,9.59
2023-05-24T20:45:06.064Z,9.54
2023-05-24T20:50:10.260Z,9.47
2023-05-24T20:55:14.383Z,9.37
2023-05-24T21:00:18.554Z,9.19
2023-05-24T21:05:22.725Z,9.08
2023-05-24T21:10:26.887Z,9.01
2023-05-24T21:15:30.996Z,8.95
2023-05-24T21:20:35.338Z,8.95
2023-05-24T21:25:39.405Z,8.83
2023-05-24T21:30:43.515Z,8.78
2023-05-24T21:35:47.690Z,8.69
2023-05-24T21:40:51.889Z,8.58
2023-05-24T21:45:55.993Z,8.50
2023-05-24T21:51:00.187Z,8.40
2023-05-24T21:56:04.323Z,8.23
2023-05-24T22:01:08.612Z,8.15
2023-05-24T22:06:12.628Z,8.06
2023-05-24T22:11:16.764Z,7.97
2023-05-24T22:16:21.007Z,7.91
2023-05-24T22:21:25.168Z,7.80
2023-05-24T22:26:29.300Z,7.82
2023-05-24T22:31:33.629Z,7.75
2023-05-24T22:36:37.648Z,7.84
2023-05-24T22:41:41.797Z,7.71
2023-05-24T22:46:45.967Z,7.55
2023-05-24T22:51:50.120Z,7.56
2023-05-24T22:56:54.256Z,7.52
2023-05-24T23:01:58.502Z,7.46
2023-05-24T23:07:02.601Z,7.43
2023-05-24T23:12:06.760Z,7.39
2023-05-24T23:17:10.974Z,7.28
2023-05-24T23:22:15.108Z,7.20
2023-05-24T23:27:19.255Z,7.19
2023-05-24T23:32:23.441Z,7.16
2023-05-24T23:37:27.577Z,7.04
2023-05-24T23:42:31.773Z,6.94
2023-05-24T23:47:35.888Z,6.87
2023-05-24T23:52:40.050Z,6.91
2023-05-24T23:57:44.227Z,7.04
